Terminal Aerodrome Forecast
Issued by NWS

Home | Current Version | Previous Version | Text Only | Print | Product List | Glossary On
Versions: 1 2 3 4 5 6 7 8 9 10 11 12 13 14 15
000
FTUS46 KOTX 051736
TAFCOE
TAF
KCOE 051736Z 0518/0618 22003KT P6SM SCT035 BKN100
     FM052100 29006KT P6SM VCSH BKN060 BKN110
     FM052300 33008KT P6SM VCTS BKN060CB BKN120
     FM060300 01010KT P6SM VCSH BKN100
     FM060800 03014KT P6SM SCT100
      AMD LTD TO CLD VIS AND WIND=

USA.gov is the U.S. government's official web portal to all federal, state and local government web resources and services.